Terminal Aerodrome Forecast
Issued by NWS Cleveland, OH

Home | Current Version | Previous Version | Text Only | Print | Product List | Glossary On
Versions: 1 2 3 4 5 6 7 8 9 10 11 12 13 14 15 16 17 18 19 20
000
FTUS41 KCLE 231700
TAFCAK
TAF
KCAK 231739Z 2318/2418 16008KT P6SM SCT025 OVC060
     FM232100 14012KT P6SM BKN020 OVC035
      TEMPO 2400/2402 5SM -SHRA BKN015
     FM240200 13015G25KT 2SM -SHRA OVC006
     FM240800 18020G30KT 5SM BR VCSH BKN018 OVC025=

USA.gov is the U.S. government's official web portal to all federal, state and local government web resources and services.